sensor_id;sensor_type;location;lat;lon;timestamp;temperature;humidity
46037;DHT22;31769;49.304;8.428;2022-12-26T00:02:47;11.40;99.90
46037;DHT22;31769;49.304;8.428;2022-12-26T00:05:48;11.40;99.90
46037;DHT22;31769;49.304;8.428;2022-12-26T00:08:50;11.40;99.90
46037;DHT22;31769;49.304;8.428;2022-12-26T00:11:50;11.60;99.90
46037;DHT22;31769;49.304;8.428;2022-12-26T00:14:51;11.80;99.90
46037;DHT22;31769;49.304;8.428;2022-12-26T00:17:52;11.90;99.90
46037;DHT22;31769;49.304;8.428;2022-12-26T00:20:52;12.00;99.90
46037;DHT22;31769;49.304;8.428;2022-12-26T00:23:55;12.00;99.90
46037;DHT22;31769;49.304;8.428;2022-12-26T00:26:56;12.10;99.90
46037;DHT22;31769;49.304;8.428;2022-12-26T00:29:56;12.20;99.90
46037;DHT22;31769;49.304;8.428;2022-12-26T00:32:57;12.30;99.90
46037;DHT22;31769;49.304;8.428;2022-12-26T00:36:06;12.30;99.90
46037;DHT22;31769;49.304;8.428;2022-12-26T00:39:07;12.50;99.90
46037;DHT22;31769;49.304;8.428;2022-12-26T00:42:08;12.60;99.90
46037;DHT22;31769;49.304;8.428;2022-12-26T00:45:09;12.70;99.90
46037;DHT22;31769;49.304;8.428;2022-12-26T00:48:09;12.70;99.90
46037;DHT22;31769;49.304;8.428;2022-12-26T00:51:10;12.70;99.90
46037;DHT22;31769;49.304;8.428;2022-12-26T00:54:11;12.70;99.90
46037;DHT22;31769;49.304;8.428;2022-12-26T00:57:12;12.70;99.90
46037;DHT22;31769;49.304;8.428;2022-12-26T01:00:13;12.60;99.90
46037;DHT22;31769;49.304;8.428;2022-12-26T01:03:14;12.60;99.90
46037;DHT22;31769;49.304;8.428;2022-12-26T01:06:15;12.60;99.90
46037;DHT22;31769;49.304;8.428;2022-12-26T01:09:16;12.60;99.90
46037;DHT22;31769;49.304;8.428;2022-12-26T01:12:16;12.60;99.90
46037;DHT22;31769;49.304;8.428;2022-12-26T01:15:18;12.70;99.90
46037;DHT22;31769;49.304;8.428;2022-12-26T01:18:20;12.70;99.90
46037;DHT22;31769;49.304;8.428;2022-12-26T01:21:20;12.70;99.90
46037;DHT22;31769;49.304;8.428;2022-12-26T01:24:21;12.80;99.90
46037;DHT22;31769;49.304;8.428;2022-12-26T01:27:23;12.80;99.90
46037;DHT22;31769;49.304;8.428;2022-12-26T01:30:24;12.80;99.90
46037;DHT22;31769;49.304;8.428;2022-12-26T01:33:24;12.80;99.90
46037;DHT22;31769;49.304;8.428;2022-12-26T01:36:25;12.80;99.90
46037;DHT22;31769;49.304;8.428;2022-12-26T01:39:26;12.80;99.90
46037;DHT22;31769;49.304;8.428;2022-12-26T01:42:38;12.70;99.90
46037;DHT22;31769;49.304;8.428;2022-12-26T01:45:42;12.80;99.90
46037;DHT22;31769;49.304;8.428;2022-12-26T01:48:45;12.80;99.90
46037;DHT22;31769;49.304;8.428;2022-12-26T01:51:50;12.80;99.90
46037;DHT22;31769;49.304;8.428;2022-12-26T01:54:53;12.70;99.90
46037;DHT22;31769;49.304;8.428;2022-12-26T01:57:59;12.70;99.90
46037;DHT22;31769;49.304;8.428;2022-12-26T02:01:02;12.70;99.90
46037;DHT22;31769;49.304;8.428;2022-12-26T02:04:06;12.70;99.90
46037;DHT22;31769;49.304;8.428;2022-12-26T02:07:27;12.70;99.90
46037;DHT22;31769;49.304;8.428;2022-12-26T02:10:32;12.70;99.90
46037;DHT22;31769;49.304;8.428;2022-12-26T02:13:35;12.70;99.90
46037;DHT22;31769;49.304;8.428;2022-12-26T02:16:37;12.60;99.90
46037;DHT22;31769;49.304;8.428;2022-12-26T02:33:11;12.70;99.90
46037;DHT22;31769;49.304;8.428;2022-12-26T02:43:14;12.50;99.90
46037;DHT22;31769;49.304;8.428;2022-12-26T02:46:33;12.50;99.90
46037;DHT22;31769;49.304;8.428;2022-12-26T02:53:43;12.40;99.90
46037;DHT22;31769;49.304;8.428;2022-12-26T02:57:06;12.50;99.90
46037;DHT22;31769;49.304;8.428;2022-12-26T03:00:26;12.50;99.90
46037;DHT22;31769;49.304;8.428;2022-12-26T03:03:48;12.40;99.90
46037;DHT22;31769;49.304;8.428;2022-12-26T03:07:15;12.40;99.90
46037;DHT22;31769;49.304;8.428;2022-12-26T03:10:37;12.40;99.90
46037;DHT22;31769;49.304;8.428;2022-12-26T03:14:13;12.30;99.90
46037;DHT22;31769;49.304;8.428;2022-12-26T03:20:34;12.40;99.90
46037;DHT22;31769;49.304;8.428;2022-12-26T03:23:36;12.40;99.90
46037;DHT22;31769;49.304;8.428;2022-12-26T03:26:45;12.30;99.90
46037;DHT22;31769;49.304;8.428;2022-12-26T03:29:47;12.30;99.90
46037;DHT22;31769;49.304;8.428;2022-12-26T03:33:06;12.30;99.90
46037;DHT22;31769;49.304;8.428;2022-12-26T03:47:45;12.30;99.90
46037;DHT22;31769;49.304;8.428;2022-12-26T03:51:20;12.30;99.90
46037;DHT22;31769;49.304;8.428;2022-12-26T03:54:52;12.30;99.90
46037;DHT22;31769;49.304;8.428;2022-12-26T03:58:13;12.30;99.90
46037;DHT22;31769;49.304;8.428;2022-12-26T04:01:34;12.20;99.90
46037;DHT22;31769;49.304;8.428;2022-12-26T04:04:56;12.20;99.90
46037;DHT22;31769;49.304;8.428;2022-12-26T04:08:22;12.30;99.90
46037;DHT22;31769;49.304;8.428;2022-12-26T04:11:44;12.30;99.90
46037;DHT22;31769;49.304;8.428;2022-12-26T04:15:17;12.30;99.90
46037;DHT22;31769;49.304;8.428;2022-12-26T04:18:45;12.20;99.90
46037;DHT22;31769;49.304;8.428;2022-12-26T04:22:11;12.20;99.90
46037;DHT22;31769;49.304;8.428;2022-12-26T04:25:41;12.20;99.90
46037;DHT22;31769;49.304;8.428;2022-12-26T04:29:02;12.20;99.90
46037;DHT22;31769;49.304;8.428;2022-12-26T04:32:33;12.20;99.90
46037;DHT22;31769;49.304;8.428;2022-12-26T04:36:01;12.30;99.90
46037;DHT22;31769;49.304;8.428;2022-12-26T04:39:26;12.20;99.90
46037;DHT22;31769;49.304;8.428;2022-12-26T04:42:48;12.20;99.90
46037;DHT22;31769;49.304;8.428;2022-12-26T04:46:08;12.60;99.90
46037;DHT22;31769;49.304;8.428;2022-12-26T04:49:11;12.30;99.90
46037;DHT22;31769;49.304;8.428;2022-12-26T04:52:31;13.00;99.90
46037;DHT22;31769;49.304;8.428;2022-12-26T04:55:50;12.30;99.90
46037;DHT22;31769;49.304;8.428;2022-12-26T04:58:51;12.40;99.90
46037;DHT22;31769;49.304;8.428;2022-12-26T05:01:51;12.40;99.90
46037;DHT22;31769;49.304;8.428;2022-12-26T05:05:10;12.30;99.90
46037;DHT22;31769;49.304;8.428;2022-12-26T05:08:34;12.30;99.90
46037;DHT22;31769;49.304;8.428;2022-12-26T05:11:54;12.30;99.90
46037;DHT22;31769;49.304;8.428;2022-12-26T05:14:55;12.30;99.90
46037;DHT22;31769;49.304;8.428;2022-12-26T05:17:56;12.20;99.90
46037;DHT22;31769;49.304;8.428;2022-12-26T05:21:17;12.30;99.90
46037;DHT22;31769;49.304;8.428;2022-12-26T05:24:38;12.30;99.90
46037;DHT22;31769;49.304;8.428;2022-12-26T05:27:58;12.30;99.90
46037;DHT22;31769;49.304;8.428;2022-12-26T05:31:17;12.30;99.90
46037;DHT22;31769;49.304;8.428;2022-12-26T05:34:18;12.20;99.90
46037;DHT22;31769;49.304;8.428;2022-12-26T05:37:20;12.20;99.90
46037;DHT22;31769;49.304;8.428;2022-12-26T05:40:21;12.20;99.90
46037;DHT22;31769;49.304;8.428;2022-12-26T05:43:22;12.50;99.90
46037;DHT22;31769;49.304;8.428;2022-12-26T05:46:22;11.90;99.90
46037;DHT22;31769;49.304;8.428;2022-12-26T05:49:23;12.30;99.90
46037;DHT22;31769;49.304;8.428;2022-12-26T05:52:23;12.30;99.90
46037;DHT22;31769;49.304;8.428;2022-12-26T05:55:24;11.90;99.90
46037;DHT22;31769;49.304;8.428;2022-12-26T05:58:25;14.60;99.90
46037;DHT22;31769;49.304;8.428;2022-12-26T06:01:27;12.20;99.90
46037;DHT22;31769;49.304;8.428;2022-12-26T06:04:28;12.20;99.90
46037;DHT22;31769;49.304;8.428;2022-12-26T06:07:29;12.20;99.90
46037;DHT22;31769;49.304;8.428;2022-12-26T06:10:30;12.20;99.90
46037;DHT22;31769;49.304;8.428;2022-12-26T06:13:30;12.20;99.90
46037;DHT22;31769;49.304;8.428;2022-12-26T06:19:35;12.10;99.90
46037;DHT22;31769;49.304;8.428;2022-12-26T06:22:36;12.10;99.90
46037;DHT22;31769;49.304;8.428;2022-12-26T06:25:37;12.10;99.90
46037;DHT22;31769;49.304;8.428;2022-12-26T06:28:38;12.30;99.90
46037;DHT22;31769;49.304;8.428;2022-12-26T06:31:39;12.10;99.90
46037;DHT22;31769;49.304;8.428;2022-12-26T06:34:40;12.10;99.90
46037;DHT22;31769;49.304;8.428;2022-12-26T06:37:40;12.10;99.90
46037;DHT22;31769;49.304;8.428;2022-12-26T06:40:42;12.10;99.90
46037;DHT22;31769;49.304;8.428;2022-12-26T06:43:43;12.10;99.90
46037;DHT22;31769;49.304;8.428;2022-12-26T06:46:44;12.00;99.90
46037;DHT22;31769;49.304;8.428;2022-12-26T06:49:45;12.00;99.90
46037;DHT22;31769;49.304;8.428;2022-12-26T06:52:45;12.00;99.90
46037;DHT22;31769;49.304;8.428;2022-12-26T06:55:46;11.90;99.90
46037;DHT22;31769;49.304;8.428;2022-12-26T06:58:52;11.90;99.90
46037;DHT22;31769;49.304;8.428;2022-12-26T07:01:53;11.80;99.90
46037;DHT22;31769;49.304;8.428;2022-12-26T07:04:53;11.70;99.90
46037;DHT22;31769;49.304;8.428;2022-12-26T07:07:54;11.60;99.90
46037;DHT22;31769;49.304;8.428;2022-12-26T07:10:55;11.60;99.90
46037;DHT22;31769;49.304;8.428;2022-12-26T07:13:56;11.60;99.90
46037;DHT22;31769;49.304;8.428;2022-12-26T07:16:57;11.60;99.90
46037;DHT22;31769;49.304;8.428;2022-12-26T07:19:57;11.60;99.90
46037;DHT22;31769;49.304;8.428;2022-12-26T07:22:58;11.60;99.90
46037;DHT22;31769;49.304;8.428;2022-12-26T07:25:59;11.60;99.90
46037;DHT22;31769;49.304;8.428;2022-12-26T07:29:00;11.60;99.90
46037;DHT22;31769;49.304;8.428;2022-12-26T07:32:00;11.50;99.90
46037;DHT22;31769;49.304;8.428;2022-12-26T07:35:01;11.60;99.90
46037;DHT22;31769;49.304;8.428;2022-12-26T07:38:02;11.60;99.90
46037;DHT22;31769;49.304;8.428;2022-12-26T07:41:02;11.50;99.90
46037;DHT22;31769;49.304;8.428;2022-12-26T07:44:24;11.50;99.90
46037;DHT22;31769;49.304;8.428;2022-12-26T07:47:25;11.50;99.90
46037;DHT22;31769;49.304;8.428;2022-12-26T07:50:26;11.50;99.90
46037;DHT22;31769;49.304;8.428;2022-12-26T07:53:28;11.40;99.90
46037;DHT22;31769;49.304;8.428;2022-12-26T07:56:31;11.40;99.90
46037;DHT22;31769;49.304;8.428;2022-12-26T07:59:33;11.40;99.90
46037;DHT22;31769;49.304;8.428;2022-12-26T08:02:34;11.30;99.90
46037;DHT22;31769;49.304;8.428;2022-12-26T08:05:34;11.30;99.90
46037;DHT22;31769;49.304;8.428;2022-12-26T08:08:35;11.30;99.90
46037;DHT22;31769;49.304;8.428;2022-12-26T08:11:36;11.40;99.90
46037;DHT22;31769;49.304;8.428;2022-12-26T08:14:37;11.40;99.90
46037;DHT22;31769;49.304;8.428;2022-12-26T08:17:38;11.40;99.90
46037;DHT22;31769;49.304;8.428;2022-12-26T08:20:39;11.40;99.90
46037;DHT22;31769;49.304;8.428;2022-12-26T08:23:40;11.40;99.90
46037;DHT22;31769;49.304;8.428;2022-12-26T08:26:40;11.50;99.90
46037;DHT22;31769;49.304;8.428;2022-12-26T08:29:41;11.50;99.90
46037;DHT22;31769;49.304;8.428;2022-12-26T08:32:42;11.40;99.90
46037;DHT22;31769;49.304;8.428;2022-12-26T08:35:43;11.40;99.90
46037;DHT22;31769;49.304;8.428;2022-12-26T08:38:44;11.40;99.90
46037;DHT22;31769;49.304;8.428;2022-12-26T08:41:45;11.30;99.90
46037;DHT22;31769;49.304;8.428;2022-12-26T08:44:46;11.30;99.90
46037;DHT22;31769;49.304;8.428;2022-12-26T08:47:46;11.30;99.90
46037;DHT22;31769;49.304;8.428;2022-12-26T08:50:47;11.30;99.90
46037;DHT22;31769;49.304;8.428;2022-12-26T08:53:49;11.40;99.90
46037;DHT22;31769;49.304;8.428;2022-12-26T08:56:50;11.30;99.90
46037;DHT22;31769;49.304;8.428;2022-12-26T08:59:50;11.40;99.90
46037;DHT22;31769;49.304;8.428;2022-12-26T09:02:51;11.40;99.90
46037;DHT22;31769;49.304;8.428;2022-12-26T09:05:52;11.40;99.90
46037;DHT22;31769;49.304;8.428;2022-12-26T09:08:52;11.40;99.90
46037;DHT22;31769;49.304;8.428;2022-12-26T09:11:53;11.40;99.90
46037;DHT22;31769;49.304;8.428;2022-12-26T09:14:54;11.30;99.90
46037;DHT22;31769;49.304;8.428;2022-12-26T09:17:55;11.30;99.90
46037;DHT22;31769;49.304;8.428;2022-12-26T09:21:01;11.40;99.90
46037;DHT22;31769;49.304;8.428;2022-12-26T09:24:05;11.40;99.90
46037;DHT22;31769;49.304;8.428;2022-12-26T09:27:06;11.30;99.90
46037;DHT22;31769;49.304;8.428;2022-12-26T09:30:07;11.40;99.90
46037;DHT22;31769;49.304;8.428;2022-12-26T09:33:08;11.40;99.90
46037;DHT22;31769;49.304;8.428;2022-12-26T09:36:11;11.30;99.90
46037;DHT22;31769;49.304;8.428;2022-12-26T09:39:12;11.40;99.90
46037;DHT22;31769;49.304;8.428;2022-12-26T09:45:41;11.40;99.90
46037;DHT22;31769;49.304;8.428;2022-12-26T09:49:11;11.40;99.90
46037;DHT22;31769;49.304;8.428;2022-12-26T09:52:34;11.40;99.90
46037;DHT22;31769;49.304;8.428;2022-12-26T09:55:58;11.40;99.90
46037;DHT22;31769;49.304;8.428;2022-12-26T09:59:04;11.40;99.90
46037;DHT22;31769;49.304;8.428;2022-12-26T10:02:17;11.50;99.90
46037;DHT22;31769;49.304;8.428;2022-12-26T10:05:21;11.50;99.90
46037;DHT22;31769;49.304;8.428;2022-12-26T10:15:30;11.50;99.90
46037;DHT22;31769;49.304;8.428;2022-12-26T10:18:55;11.50;99.90
46037;DHT22;31769;49.304;8.428;2022-12-26T10:32:05;11.40;99.90
46037;DHT22;31769;49.304;8.428;2022-12-26T10:38:28;11.50;99.90
46037;DHT22;31769;49.304;8.428;2022-12-26T10:41:41;11.50;99.90
46037;DHT22;31769;49.304;8.428;2022-12-26T10:44:42;11.50;99.90
46037;DHT22;31769;49.304;8.428;2022-12-26T10:47:45;11.50;99.90
46037;DHT22;31769;49.304;8.428;2022-12-26T10:50:48;11.50;99.90
46037;DHT22;31769;49.304;8.428;2022-12-26T10:53:50;11.50;99.90
46037;DHT22;31769;49.304;8.428;2022-12-26T10:56:52;11.60;99.90
46037;DHT22;31769;49.304;8.428;2022-12-26T10:59:55;11.60;99.90
46037;DHT22;31769;49.304;8.428;2022-12-26T11:03:11;11.70;99.90
46037;DHT22;31769;49.304;8.428;2022-12-26T11:06:12;11.70;99.90
46037;DHT22;31769;49.304;8.428;2022-12-26T11:09:33;11.70;99.90
46037;DHT22;31769;49.304;8.428;2022-12-26T11:12:46;11.80;99.90
46037;DHT22;31769;49.304;8.428;2022-12-26T11:15:53;11.80;99.90
46037;DHT22;31769;49.304;8.428;2022-12-26T11:18:54;11.80;99.90
46037;DHT22;31769;49.304;8.428;2022-12-26T11:25:24;11.80;99.90
46037;DHT22;31769;49.304;8.428;2022-12-26T11:28:35;11.80;99.90
46037;DHT22;31769;49.304;8.428;2022-12-26T11:31:41;11.90;99.90
46037;DHT22;31769;49.304;8.428;2022-12-26T11:34:45;11.90;99.90
46037;DHT22;31769;49.304;8.428;2022-12-26T11:37:51;11.90;99.90
46037;DHT22;31769;49.304;8.428;2022-12-26T11:40:53;11.80;99.90
46037;DHT22;31769;49.304;8.428;2022-12-26T11:44:53;11.90;99.90
46037;DHT22;31769;49.304;8.428;2022-12-26T11:47:48;11.90;99.90
46037;DHT22;31769;49.304;8.428;2022-12-26T11:50:50;12.00;99.90
46037;DHT22;31769;49.304;8.428;2022-12-26T11:54:17;12.00;99.90
46037;DHT22;31769;49.304;8.428;2022-12-26T11:57:30;12.00;99.90
46037;DHT22;31769;49.304;8.428;2022-12-26T12:00:39;12.00;99.90
46037;DHT22;31769;49.304;8.428;2022-12-26T12:03:47;12.00;99.90
46037;DHT22;31769;49.304;8.428;2022-12-26T12:07:01;12.10;99.90
46037;DHT22;31769;49.304;8.428;2022-12-26T12:10:39;12.10;99.90
46037;DHT22;31769;49.304;8.428;2022-12-26T12:13:53;12.10;99.90
46037;DHT22;31769;49.304;8.428;2022-12-26T12:20:32;12.20;99.90
46037;DHT22;31769;49.304;8.428;2022-12-26T12:24:21;12.20;99.90
46037;DHT22;31769;49.304;8.428;2022-12-26T12:30:14;12.20;99.90
46037;DHT22;31769;49.304;8.428;2022-12-26T12:43:08;12.20;99.90
46037;DHT22;31769;49.304;8.428;2022-12-26T12:50:31;12.40;99.90
46037;DHT22;31769;49.304;8.428;2022-12-26T12:57:12;12.30;99.90
46037;DHT22;31769;49.304;8.428;2022-12-26T13:00:17;12.40;99.90
46037;DHT22;31769;49.304;8.428;2022-12-26T13:06:48;12.30;99.90
46037;DHT22;31769;49.304;8.428;2022-12-26T13:09:54;12.30;99.90
46037;DHT22;31769;49.304;8.428;2022-12-26T13:12:56;12.30;99.90
46037;DHT22;31769;49.304;8.428;2022-12-26T13:16:11;12.30;99.90
46037;DHT22;31769;49.304;8.428;2022-12-26T13:19:24;12.30;99.90
46037;DHT22;31769;49.304;8.428;2022-12-26T13:22:39;12.30;99.90
46037;DHT22;31769;49.304;8.428;2022-12-26T13:26:08;12.20;99.90
46037;DHT22;31769;49.304;8.428;2022-12-26T13:32:31;12.00;99.90
46037;DHT22;31769;49.304;8.428;2022-12-26T13:35:59;11.90;99.90
46037;DHT22;31769;49.304;8.428;2022-12-26T13:51:47;11.70;99.90
46037;DHT22;31769;49.304;8.428;2022-12-26T13:58:13;11.90;99.90
46037;DHT22;31769;49.304;8.428;2022-12-26T14:01:42;12.00;99.90
46037;DHT22;31769;49.304;8.428;2022-12-26T14:05:11;12.10;99.90
46037;DHT22;31769;49.304;8.428;2022-12-26T14:08:26;12.10;99.90
46037;DHT22;31769;49.304;8.428;2022-12-26T14:14:53;12.00;99.90
46037;DHT22;31769;49.304;8.428;2022-12-26T14:31:07;11.60;99.90
46037;DHT22;31769;49.304;8.428;2022-12-26T14:47:53;11.70;99.90
46037;DHT22;31769;49.304;8.428;2022-12-26T14:50:55;11.70;99.90
46037;DHT22;31769;49.304;8.428;2022-12-26T14:57:44;11.70;99.90
46037;DHT22;31769;49.304;8.428;2022-12-26T15:00:46;11.70;99.90
46037;DHT22;31769;49.304;8.428;2022-12-26T15:21:35;11.60;99.90
46037;DHT22;31769;49.304;8.428;2022-12-26T15:34:59;11.30;99.90
46037;DHT22;31769;49.304;8.428;2022-12-26T15:51:21;11.10;99.90
46037;DHT22;31769;49.304;8.428;2022-12-26T16:01:42;11.00;99.90
46037;DHT22;31769;49.304;8.428;2022-12-26T16:04:48;11.00;99.90
46037;DHT22;31769;49.304;8.428;2022-12-26T16:14:31;10.90;99.90
46037;DHT22;31769;49.304;8.428;2022-12-26T16:17:32;10.90;99.90
46037;DHT22;31769;49.304;8.428;2022-12-26T16:20:33;10.90;99.90
46037;DHT22;31769;49.304;8.428;2022-12-26T16:23:53;10.90;99.90
46037;DHT22;31769;49.304;8.428;2022-12-26T16:26:59;10.90;99.90
46037;DHT22;31769;49.304;8.428;2022-12-26T16:30:04;10.90;99.90
46037;DHT22;31769;49.304;8.428;2022-12-26T16:33:06;11.00;99.90
46037;DHT22;31769;49.304;8.428;2022-12-26T16:36:14;11.00;99.90
46037;DHT22;31769;49.304;8.428;2022-12-26T16:39:21;11.10;99.90
46037;DHT22;31769;49.304;8.428;2022-12-26T16:42:30;11.20;99.90
46037;DHT22;31769;49.304;8.428;2022-12-26T16:45:36;11.20;99.90
46037;DHT22;31769;49.304;8.428;2022-12-26T16:48:37;11.20;99.90
46037;DHT22;31769;49.304;8.428;2022-12-26T16:54:42;11.10;99.90
46037;DHT22;31769;49.304;8.428;2022-12-26T16:57:43;11.10;99.90
46037;DHT22;31769;49.304;8.428;2022-12-26T17:00:47;11.00;99.90
46037;DHT22;31769;49.304;8.428;2022-12-26T17:03:53;10.80;99.90
46037;DHT22;31769;49.304;8.428;2022-12-26T17:07:05;10.70;99.90
46037;DHT22;31769;49.304;8.428;2022-12-26T17:10:18;10.60;99.90
46037;DHT22;31769;49.304;8.428;2022-12-26T17:13:23;12.20;99.90
46037;DHT22;31769;49.304;8.428;2022-12-26T17:16:28;12.70;99.90
46037;DHT22;31769;49.304;8.428;2022-12-26T17:19:31;10.40;99.90
46037;DHT22;31769;49.304;8.428;2022-12-26T17:22:34;10.40;99.90
46037;DHT22;31769;49.304;8.428;2022-12-26T17:31:42;10.40;99.90
46037;DHT22;31769;49.304;8.428;2022-12-26T17:34:43;11.90;99.90
46037;DHT22;31769;49.304;8.428;2022-12-26T17:37:45;10.40;99.90
46037;DHT22;31769;49.304;8.428;2022-12-26T17:40:55;9.70;99.90
46037;DHT22;31769;49.304;8.428;2022-12-26T17:43:56;10.20;99.90
46037;DHT22;31769;49.304;8.428;2022-12-26T17:46:59;11.10;99.90
46037;DHT22;31769;49.304;8.428;2022-12-26T17:50:01;10.40;99.90
46037;DHT22;31769;49.304;8.428;2022-12-26T17:53:27;10.30;99.90
46037;DHT22;31769;49.304;8.428;2022-12-26T17:56:30;10.20;99.90
46037;DHT22;31769;49.304;8.428;2022-12-26T17:59:31;10.20;99.90
46037;DHT22;31769;49.304;8.428;2022-12-26T18:02:31;10.20;99.90
46037;DHT22;31769;49.304;8.428;2022-12-26T18:05:33;10.10;99.90
46037;DHT22;31769;49.304;8.428;2022-12-26T18:08:39;10.10;99.90
46037;DHT22;31769;49.304;8.428;2022-12-26T18:11:40;10.10;99.90
46037;DHT22;31769;49.304;8.428;2022-12-26T18:14:41;10.20;99.90
46037;DHT22;31769;49.304;8.428;2022-12-26T18:17:42;10.30;99.90
46037;DHT22;31769;49.304;8.428;2022-12-26T18:20:43;10.30;99.90
46037;DHT22;31769;49.304;8.428;2022-12-26T18:23:44;10.20;99.90
46037;DHT22;31769;49.304;8.428;2022-12-26T18:26:45;10.30;99.90
46037;DHT22;31769;49.304;8.428;2022-12-26T18:29:45;10.30;99.90
46037;DHT22;31769;49.304;8.428;2022-12-26T18:32:48;10.30;99.90
46037;DHT22;31769;49.304;8.428;2022-12-26T18:35:48;10.30;99.90
46037;DHT22;31769;49.304;8.428;2022-12-26T18:38:49;10.20;99.90
46037;DHT22;31769;49.304;8.428;2022-12-26T18:41:50;10.20;99.90
46037;DHT22;31769;49.304;8.428;2022-12-26T18:44:50;10.20;99.90
46037;DHT22;31769;49.304;8.428;2022-12-26T18:47:51;10.00;99.90
46037;DHT22;31769;49.304;8.428;2022-12-26T18:50:52;10.00;99.90
46037;DHT22;31769;49.304;8.428;2022-12-26T18:53:53;9.90;99.90
46037;DHT22;31769;49.304;8.428;2022-12-26T18:56:54;9.90;99.90
46037;DHT22;31769;49.304;8.428;2022-12-26T18:59:55;9.80;99.90
46037;DHT22;31769;49.304;8.428;2022-12-26T19:02:55;9.70;99.90
46037;DHT22;31769;49.304;8.428;2022-12-26T19:05:56;9.90;99.90
46037;DHT22;31769;49.304;8.428;2022-12-26T19:08:57;9.70;99.90
46037;DHT22;31769;49.304;8.428;2022-12-26T19:11:58;9.70;99.90
46037;DHT22;31769;49.304;8.428;2022-12-26T19:14:58;9.90;99.90
46037;DHT22;31769;49.304;8.428;2022-12-26T19:17:59;9.60;99.90
46037;DHT22;31769;49.304;8.428;2022-12-26T19:21:00;9.60;99.90
46037;DHT22;31769;49.304;8.428;2022-12-26T19:24:01;9.60;99.90
46037;DHT22;31769;49.304;8.428;2022-12-26T19:27:02;9.30;99.90
46037;DHT22;31769;49.304;8.428;2022-12-26T19:30:04;9.50;99.90
46037;DHT22;31769;49.304;8.428;2022-12-26T19:33:04;9.40;99.90
46037;DHT22;31769;49.304;8.428;2022-12-26T19:36:06;9.80;99.90
46037;DHT22;31769;49.304;8.428;2022-12-26T19:39:07;9.50;99.90
46037;DHT22;31769;49.304;8.428;2022-12-26T19:42:08;9.40;99.90
46037;DHT22;31769;49.304;8.428;2022-12-26T19:45:09;9.30;99.90
46037;DHT22;31769;49.304;8.428;2022-12-26T19:48:11;9.40;99.90
46037;DHT22;31769;49.304;8.428;2022-12-26T19:51:13;9.30;99.90
46037;DHT22;31769;49.304;8.428;2022-12-26T19:54:14;9.20;99.90
46037;DHT22;31769;49.304;8.428;2022-12-26T19:57:14;9.20;99.90
46037;DHT22;31769;49.304;8.428;2022-12-26T20:00:15;9.20;99.90
46037;DHT22;31769;49.304;8.428;2022-12-26T20:03:16;9.10;99.90
46037;DHT22;31769;49.304;8.428;2022-12-26T20:06:22;9.10;99.90
46037;DHT22;31769;49.304;8.428;2022-12-26T20:09:23;9.00;99.90
46037;DHT22;31769;49.304;8.428;2022-12-26T20:12:24;8.80;99.90
46037;DHT22;31769;49.304;8.428;2022-12-26T20:15:24;8.80;99.90
46037;DHT22;31769;49.304;8.428;2022-12-26T20:18:25;8.80;99.90
46037;DHT22;31769;49.304;8.428;2022-12-26T20:21:28;8.90;99.90
46037;DHT22;31769;49.304;8.428;2022-12-26T20:24:29;9.00;99.90
46037;DHT22;31769;49.304;8.428;2022-12-26T20:27:29;8.90;99.90
46037;DHT22;31769;49.304;8.428;2022-12-26T20:30:32;9.10;99.90
46037;DHT22;31769;49.304;8.428;2022-12-26T20:33:34;9.10;99.90
46037;DHT22;31769;49.304;8.428;2022-12-26T20:36:36;9.10;99.90
46037;DHT22;31769;49.304;8.428;2022-12-26T20:39:38;10.10;99.90
46037;DHT22;31769;49.304;8.428;2022-12-26T20:42:38;9.00;99.90
46037;DHT22;31769;49.304;8.428;2022-12-26T20:45:39;9.00;99.90
46037;DHT22;31769;49.304;8.428;2022-12-26T20:48:40;11.30;99.90
46037;DHT22;31769;49.304;8.428;2022-12-26T20:51:42;9.20;99.90
46037;DHT22;31769;49.304;8.428;2022-12-26T20:54:43;9.10;99.90
46037;DHT22;31769;49.304;8.428;2022-12-26T21:01:27;9.00;99.90
46037;DHT22;31769;49.304;8.428;2022-12-26T21:04:28;9.00;99.90
46037;DHT22;31769;49.304;8.428;2022-12-26T21:07:31;8.90;99.90
46037;DHT22;31769;49.304;8.428;2022-12-26T21:10:32;8.90;99.90
46037;DHT22;31769;49.304;8.428;2022-12-26T21:13:33;11.00;99.90
46037;DHT22;31769;49.304;8.428;2022-12-26T21:16:41;8.70;99.90
46037;DHT22;31769;49.304;8.428;2022-12-26T21:19:42;8.70;99.90
46037;DHT22;31769;49.304;8.428;2022-12-26T21:22:42;8.60;99.90
46037;DHT22;31769;49.304;8.428;2022-12-26T21:25:43;8.60;99.90
46037;DHT22;31769;49.304;8.428;2022-12-26T21:28:43;8.60;99.90
46037;DHT22;31769;49.304;8.428;2022-12-26T21:31:45;8.50;99.90
46037;DHT22;31769;49.304;8.428;2022-12-26T21:34:46;8.50;99.90
46037;DHT22;31769;49.304;8.428;2022-12-26T21:37:47;7.70;99.90
46037;DHT22;31769;49.304;8.428;2022-12-26T21:40:48;9.80;99.90
46037;DHT22;31769;49.304;8.428;2022-12-26T21:43:49;8.40;99.90
46037;DHT22;31769;49.304;8.428;2022-12-26T21:46:50;9.00;99.90
46037;DHT22;31769;49.304;8.428;2022-12-26T21:49:50;8.30;99.90
46037;DHT22;31769;49.304;8.428;2022-12-26T21:52:51;8.30;99.90
46037;DHT22;31769;49.304;8.428;2022-12-26T21:55:52;8.30;99.90
46037;DHT22;31769;49.304;8.428;2022-12-26T21:58:53;8.40;99.90
46037;DHT22;31769;49.304;8.428;2022-12-26T22:02:12;8.30;99.90
46037;DHT22;31769;49.304;8.428;2022-12-26T22:05:38;8.30;99.90
46037;DHT22;31769;49.304;8.428;2022-12-26T22:08:39;8.20;99.90
46037;DHT22;31769;49.304;8.428;2022-12-26T22:11:39;8.30;99.90
46037;DHT22;31769;49.304;8.428;2022-12-26T22:14:59;8.20;99.90
46037;DHT22;31769;49.304;8.428;2022-12-26T22:17:59;8.00;99.90
46037;DHT22;31769;49.304;8.428;2022-12-26T22:24:05;7.90;99.90
46037;DHT22;31769;49.304;8.428;2022-12-26T22:27:06;7.80;99.90
46037;DHT22;31769;49.304;8.428;2022-12-26T22:30:07;7.80;99.90
46037;DHT22;31769;49.304;8.428;2022-12-26T22:33:08;7.70;99.90
46037;DHT22;31769;49.304;8.428;2022-12-26T22:36:09;7.60;99.90
46037;DHT22;31769;49.304;8.428;2022-12-26T22:39:12;7.70;99.90
46037;DHT22;31769;49.304;8.428;2022-12-26T22:42:13;7.70;99.90
46037;DHT22;31769;49.304;8.428;2022-12-26T22:45:14;7.70;99.90
46037;DHT22;31769;49.304;8.428;2022-12-26T22:48:14;7.80;99.90
46037;DHT22;31769;49.304;8.428;2022-12-26T22:51:18;7.80;99.90
46037;DHT22;31769;49.304;8.428;2022-12-26T22:54:19;7.80;99.90
46037;DHT22;31769;49.304;8.428;2022-12-26T22:57:19;7.80;99.90
46037;DHT22;31769;49.304;8.428;2022-12-26T23:00:21;7.70;99.90
46037;DHT22;31769;49.304;8.428;2022-12-26T23:03:23;7.70;99.90
46037;DHT22;31769;49.304;8.428;2022-12-26T23:06:26;7.60;99.90
46037;DHT22;31769;49.304;8.428;2022-12-26T23:09:27;7.60;99.90
46037;DHT22;31769;49.304;8.428;2022-12-26T23:12:28;7.50;99.90
46037;DHT22;31769;49.304;8.428;2022-12-26T23:15:56;7.50;99.90
46037;DHT22;31769;49.304;8.428;2022-12-26T23:19:45;7.40;99.90
46037;DHT22;31769;49.304;8.428;2022-12-26T23:23:22;7.40;99.90